Latest Weather Observations for Mawson*

IDT60801

Issued at 6:05 pm EDT Sunday 23 November 2014 (issued every 30 minutes, with the page automatically refreshed every 10 minutes)

About weather observations | Map of weather stations | Latest weather observations for ANT | Other Formats
Station Details ID: 300001 Name: MAWSON Lat: -67.60 Lon: 62.88 Height: 9.9 m
Data from the previous 72 hours. | See also: Recent months at Mawson*
Date/Time
EDT
Temp
°C
App
Temp
°C
Dew
Point
Rel
Hum
%
Delta-T
°C
Wind Press
QNH
hPa
Press
MSL
hPa
Rain
since 9 am
mm
Dir
 
Spd
km/h
Gust
km/h
Spd
kts
Gust
kts
23/06:00pm -2.7 -13.8 -14.1 41 - SE 41 46 22 25 987.5 - -
23/05:30pm -3.4 -15.1 -14.4 42 - SE 44 54 24 29 987.6 - -
23/05:00pm -3.7 -15.4 -14.4 43 - SE 44 56 24 30 987.5 987.6 -
23/04:30pm -3.9 -16.8 -15.5 40 - SE 50 59 27 32 987.6 - -
23/04:00pm -4.1 -17.4 -15.4 41 - SE 52 63 28 34 987.7 - -
23/03:30pm -4.1 -17.1 -17.2 35 - SE 50 61 27 33 987.9 - -
23/03:00pm -4.9 -18.6 -17.0 38 - SE 54 65 29 35 988.0 - -
23/02:30pm -5.0 -18.4 -17.4 37 - SE 52 65 28 35 988.2 - -
23/02:00pm -5.1 -18.9 -18.5 34 - SE 54 65 29 35 988.5 988.6 -
23/01:30pm -5.3 -19.1 -19.0 33 - SE 54 61 29 33 988.6 - -
23/01:00pm -5.5 -18.9 -19.2 33 - SE 52 63 28 34 988.8 - -
23/12:30pm -5.5 -19.7 -18.8 34 - SE 56 65 30 35 989.1 - -
23/12:00pm -5.8 -18.1 -19.4 33 - SE 46 61 25 33 989.3 - -
23/11:36am -6.3 -18.0 -17.6 40 - SE 43 61 23 33 989.8 - -
23/11:30am -6.3 -18.9 -17.6 40 - SE 48 61 26 33 989.7 - -
23/11:00am -6.1 -18.4 -18.4 37 - SE 46 54 25 29 989.9 990.0 -
23/10:30am -6.2 -18.9 -19.5 34 - SE 48 59 26 32 990.1 - -
23/10:00am -6.1 -18.4 -19.0 35 - SE 46 59 25 32 990.2 - -
23/09:30am -6.2 -18.5 -18.8 36 - SE 46 54 25 29 990.9 - -
23/09:00am -6.7 -20.1 -18.0 40 - SE 52 61 28 33 990.6 - -
23/08:30am -6.5 -18.2 -18.1 39 - SE 43 56 23 30 991.1 - -
23/08:00am -7.3 -21.4 -16.6 47 - SE 56 65 30 35 991.2 991.3 -
23/07:30am -6.4 -18.0 -16.9 43 - SE 43 54 23 29 991.6 - -
23/07:00am -6.6 -18.4 -15.8 48 - SE 44 52 24 28 992.0 - -
23/06:30am -6.6 -19.5 -14.8 52 - SE 50 59 27 32 992.1 - -
23/06:00am -6.0 -17.1 -14.5 51 - SE 41 48 22 26 992.5 - -
23/05:30am -5.7 -15.7 -14.2 51 - SE 35 43 19 23 992.7 - -
23/05:00am -5.7 -15.3 -14.0 52 - SE 33 41 18 22 993.0 993.1 -
23/04:30am -5.4 -15.7 -13.7 52 - SE 37 44 20 24 993.1 - -
23/04:00am -5.2 -14.7 -12.6 56 - SE 33 43 18 23 993.5 - -
23/03:30am -4.8 -14.7 -12.7 54 - ESE 35 44 19 24 993.5 - -
23/03:00am -4.4 -13.4 -13.5 49 - ESE 30 48 16 26 993.5 - -
23/02:34am -4.1 -12.7 -13.2 49 - ESE 28 46 15 25 993.9 - -
23/02:30am -4.1 -11.5 -13.2 49 - E 22 39 12 21 994.0 - -
23/02:00am -3.8 -12.7 -12.4 51 - ESE 30 39 16 21 994.1 994.2 -
23/01:30am -3.6 -12.9 -11.8 53 - ESE 32 43 17 23 994.2 - -
23/01:00am -3.2 -9.3 -12.6 48 - ESE 15 26 8 14 994.6 - -
23/12:30am -3.1 -10.0 -10.6 56 - E 20 32 11 17 994.9 - -
23/12:00am -3.0 -9.4 -11.2 53 - NE 17 28 9 15 995.2 - -
 
Date/Time
EDT
Temp
°C
App
Temp
°C
Dew
Point
Rel
Hum
%
Delta-T
°C
Wind Press
QNH
hPa
Press
MSL
hPa
Rain
since 9 am
mm
Dir
 
Spd
km/h
Gust
km/h
Spd
kts
Gust
kts
22/11:30pm -3.2 -10.5 -10.5 57 - ENE 22 30 12 16 995.4 - -
22/11:00pm -3.2 -10.5 -11.2 54 - E 22 32 12 17 995.6 995.7 -
22/10:30pm -3.1 -12.3 -10.4 57 - E 32 46 17 25 996.0 - -
22/10:00pm -3.2 -12.6 -10.7 56 - E 33 41 18 22 996.3 - -
22/09:30pm -3.0 -11.8 -11.2 53 - E 30 37 16 20 996.6 - -
22/09:00pm -2.8 -12.0 -10.3 56 - E 32 43 17 23 996.9 - -
22/08:30pm -3.0 -12.4 -11.2 53 - ESE 33 41 18 22 997.0 - -
22/08:00pm -3.0 -12.5 -11.9 50 - ESE 33 46 18 25 997.1 997.2 -
22/07:30pm -3.3 -14.6 -11.7 52 - ESE 43 52 23 28 997.1 - -
22/07:00pm -3.5 -14.5 -11.7 53 - SE 41 50 22 27 997.3 - -
22/06:30pm -3.6 -15.5 -12.2 51 - SE 46 54 25 29 997.4 - -
22/06:00pm -3.6 -14.6 -11.8 53 - ESE 41 50 22 27 997.4 - -
22/05:35pm -3.6 -13.9 -12.5 50 - ESE 37 56 20 30 997.7 - -
22/05:30pm -3.5 -13.7 -12.1 51 - ESE 37 48 20 26 997.8 - -
22/05:00pm -3.7 -14.3 -12.1 52 - ESE 39 48 21 26 998.0 998.1 -
22/04:30pm -4.1 -15.2 -13.2 49 - SE 41 50 22 27 998.1 - -
22/04:00pm -4.6 -16.2 -13.4 50 - SE 44 54 24 29 998.2 - -
22/03:30pm -5.2 -17.3 -14.0 50 - SE 46 56 25 30 998.3 - -
22/03:00pm -5.5 -17.6 -14.7 48 - SE 46 57 25 31 998.4 - -
22/02:30pm -5.6 -18.5 -15.6 45 - SE 50 59 27 32 998.5 - -
22/02:00pm -5.6 -18.5 -15.6 45 - SE 50 61 27 33 998.4 998.5 -
22/01:30pm -5.7 -19.4 -16.5 42 - SE 54 61 29 33 998.5 - -
22/01:00pm -5.8 -19.5 -16.1 44 - SE 54 63 29 34 998.7 - -
22/12:30pm -5.8 -18.7 -15.5 46 - SE 50 57 27 31 998.8 - -
22/12:00pm -6.0 -19.2 -14.5 51 - SE 52 61 28 33 998.8 - -
22/11:30am -6.3 -19.1 -13.8 55 - SE 50 59 27 32 998.9 - -
22/11:00am -6.4 -18.4 -13.5 57 - SE 46 57 25 31 999.1 999.2 -
22/10:30am -6.2 -17.8 -13.3 57 - SE 44 57 24 31 999.1 - -
22/10:00am -6.1 -18.2 -14.3 52 - SE 46 57 25 31 999.1 - -
22/09:30am -6.1 -17.6 -13.9 54 - SE 43 50 23 27 999.4 - -
22/09:00am -5.8 -16.9 -14.3 51 - SE 41 48 22 26 999.6 - -
22/08:30am -5.8 -16.5 -13.8 53 - SE 39 46 21 25 999.6 - -
22/08:00am -6.2 -17.7 -14.2 53 - SE 43 48 23 26 999.6 999.7 -
22/07:30am -7.3 -19.4 -14.8 55 - SE 46 54 25 29 999.4 - -
22/07:00am -6.8 -18.3 -13.7 58 - SE 43 52 23 28 999.4 - -
22/06:30am -6.0 -16.7 -14.0 53 - SE 39 44 21 24 999.4 - -
22/06:00am -5.2 -14.7 -12.6 56 - SE 33 43 18 23 999.4 - -
22/05:30am -5.1 -14.6 -12.1 58 - SE 33 39 18 21 999.4 - -
22/05:00am -4.7 -14.1 -11.5 59 - SE 33 41 18 22 999.2 999.3 -
22/04:30am -4.4 -12.9 -11.2 59 - ESE 28 35 15 19 999.0 - -
22/04:00am -4.5 -13.3 -11.3 59 - SE 30 33 16 18 998.8 - -
22/03:30am -4.0 -12.4 -11.0 58 - SE 28 35 15 19 998.7 - -
22/03:00am -4.0 -12.1 -11.2 57 - ESE 26 33 14 18 998.8 - -
22/02:30am -4.1 -12.9 -10.9 59 - ESE 30 35 16 19 998.5 - -
22/02:00am -3.5 -11.2 -11.2 55 - ESE 24 32 13 17 998.4 998.5 -
22/01:30am -3.2 -10.1 -10.7 56 - ESE 20 28 11 15 998.3 - -
22/01:00am -2.8 -11.2 -10.8 54 - ESE 28 35 15 19 998.1 - -
22/12:30am -2.6 -9.4 -9.7 58 - E 20 28 11 15 997.9 - -
22/12:00am -2.2 -11.0 -10.0 55 - E 30 37 16 20 997.8 - -
 
Date/Time
EDT
Temp
°C
App
Temp
°C
Dew
Point
Rel
Hum
%
Delta-T
°C
Wind Press
QNH
hPa
Press
MSL
hPa
Rain
since 9 am
mm
Dir
 
Spd
km/h
Gust
km/h
Spd
kts
Gust
kts
21/11:30pm -2.0 -10.3 -9.6 56 - E 28 35 15 19 997.6 - -
21/11:00pm -1.9 -11.2 -9.9 54 - E 33 43 18 23 997.5 997.6 -
21/10:30pm -1.6 -10.7 -9.0 57 - E 32 43 17 23 997.3 - -
21/10:00pm -1.8 -12.1 -8.3 61 - E 39 52 21 28 996.9 - -
21/09:30pm -2.0 -13.3 -8.1 63 - E 44 57 24 31 996.6 - -
21/09:00pm -1.7 -12.9 -7.6 64 - E 44 59 24 32 996.4 - -
21/08:30pm -1.9 -13.0 -8.4 61 - E 43 59 23 32 996.2 - -
21/08:24pm -2.0 -12.7 -8.7 60 - E 41 59 22 32 996.1 - -
21/08:00pm -1.9 -12.6 -7.8 64 - E 41 54 22 29 996.1 996.2 -
21/07:30pm -2.0 -13.7 -8.3 62 - E 46 63 25 34 995.8 - -
21/07:07pm -1.9 -12.9 -7.4 66 - E 43 61 23 33 995.6 - -
21/07:00pm -1.9 -13.5 -7.2 67 - E 46 63 25 34 995.6 - -
21/06:30pm -2.5 -15.6 -7.8 67 - E 54 63 29 34 995.3 - -
21/06:00pm -2.7 -15.9 -8.5 64 - ESE 54 67 29 36 994.9 - -
21/05:30pm -3.0 -15.1 -9.0 63 - ESE 48 65 26 35 994.5 - -
21/05:00pm -3.2 -14.9 -9.2 63 - ESE 46 57 25 31 994.3 994.4 -
21/04:30pm -3.6 -16.1 -8.8 67 - ESE 50 67 27 36 994.1 - -
21/04:00pm -3.8 -17.0 -8.8 68 - ESE 54 65 29 35 993.7 - -
21/03:36pm -4.1 -17.3 -8.7 70 - ESE 54 72 29 39 993.5 - -
21/03:30pm -4.1 -17.9 -8.6 71 - SE 57 72 31 39 993.5 - -
21/03:00pm -4.1 -18.7 -9.5 66 - SE 61 72 33 39 993.3 - -
21/02:30pm -4.4 -18.6 -9.8 66 - SE 59 76 32 41 992.9 - -
21/02:00pm -4.3 -18.9 -9.5 67 - SE 61 76 33 41 992.9 993.0 -
21/01:30pm -4.5 -18.7 -9.5 68 - SE 59 70 32 38 992.8 - -
21/01:00pm -4.8 -18.7 -10.0 67 - SE 57 70 31 38 992.7 - -
21/12:30pm -5.0 -18.7 -10.0 68 - SE 56 69 30 37 992.4 - -
21/12:00pm -5.2 -18.9 -10.2 68 - SE 56 65 30 35 992.4 - -
21/11:30am -5.2 -18.5 -10.2 68 - SE 54 65 29 35 992.2 - -
21/11:00am -5.1 -17.3 -10.1 68 - SE 48 61 26 33 992.0 992.1 -
21/10:30am -4.9 -16.7 -10.1 67 - ESE 46 61 25 33 992.1 - -
21/10:00am -5.0 -17.6 -10.0 68 - SE 50 59 27 32 992.0 - -
21/09:30am -5.1 -17.3 -9.9 69 - SE 48 57 26 31 991.9 - -
21/09:00am -5.1 -17.7 -10.1 68 - SE 50 61 27 33 991.8 - -
21/08:30am -5.0 -17.2 -10.2 67 - SE 48 56 26 30 991.8 - -
21/08:00am -4.9 -16.2 -10.6 64 - ESE 43 50 23 27 991.8 991.9 -
21/07:30am -4.9 -16.4 -10.6 64 - SE 44 54 24 29 991.6 - -
21/07:00am -4.9 -16.4 -10.8 63 - SE 44 56 24 30 991.4 - -
21/06:30am -4.9 -16.8 -11.7 59 - SE 46 57 25 31 991.3 - -
21/06:00am -4.9 -16.8 -11.7 59 - SE 46 56 25 30 991.0 - -
21/05:30am -4.9 -17.6 -11.9 58 - SE 50 59 27 32 990.9 - -
21/05:00am -4.9 -17.6 -12.1 57 - SE 50 61 27 33 990.4 990.5 -
21/04:30am -4.7 -16.1 -11.9 57 - ESE 43 56 23 30 990.7 - -
21/04:00am -4.5 -15.5 -12.6 53 - ESE 41 54 22 29 990.5 - -
21/03:30am -4.1 -14.0 -12.7 51 - ESE 35 50 19 27 990.5 - -
21/03:00am -4.0 -13.5 -12.6 51 - ESE 33 43 18 23 990.4 - -
21/02:30am -3.6 -13.5 -12.5 50 - ESE 35 44 19 24 990.3 - -
21/02:00am -3.6 -12.4 -11.1 56 - E 30 37 16 20 990.5 990.6 -
21/01:30am -3.4 -11.8 -10.7 57 - E 28 35 15 19 990.5 - -
21/01:00am -3.1 -11.5 -10.8 55 - E 28 37 15 20 990.3 - -
21/12:30am -2.7 -12.1 -10.9 53 - E 33 43 18 23 990.1 - -
21/12:00am -2.5 -12.3 -11.2 51 - ESE 35 43 19 23 989.8 - -
 
Date/Time
EDT
Temp
°C
App
Temp
°C
Dew
Point
Rel
Hum
%
Delta-T
°C
Wind Press
QNH
hPa
Press
MSL
hPa
Rain
since 9 am
mm
Dir
 
Spd
km/h
Gust
km/h
Spd
kts
Gust
kts
20/11:30pm -2.3 -12.8 -10.3 54 - E 39 46 21 25 989.8 - -
20/11:06pm -2.5 -11.7 -10.5 54 - E 32 50 17 27 989.7 - -

Other Formats:

Comma delimited format used in spreadsheet applications
http://www.bom.gov.au/fwo/IDT60803/IDT60803.89564.axf

JavaScript Object Notation format (JSON) in row-major order
http://www.bom.gov.au/fwo/IDT60803/IDT60803.89564.json